sensor_id;sensor_type;location;lat;lon;timestamp;temperature;humidity
16491;DHT22;8356;51.214;3.270;2023-05-10T00:39:34;384.40;2329.60
16491;DHT22;8356;51.214;3.270;2023-05-10T00:41:59;384.30;2329.60
16491;DHT22;8356;51.214;3.270;2023-05-10T00:44:25;384.20;2329.60
16491;DHT22;8356;51.214;3.270;2023-05-10T00:46:51;384.10;2329.60
16491;DHT22;8356;51.214;3.270;2023-05-10T00:49:17;384.10;2329.60
16491;DHT22;8356;51.214;3.270;2023-05-10T00:51:44;384.10;2329.60
16491;DHT22;8356;51.214;3.270;2023-05-10T00:54:11;384.10;2329.60
16491;DHT22;8356;51.214;3.270;2023-05-10T00:56:38;384.20;2329.60
16491;DHT22;8356;51.214;3.270;2023-05-10T00:59:03;384.20;2329.60
16491;DHT22;8356;51.214;3.270;2023-05-10T01:01:29;384.10;2329.60
16491;DHT22;8356;51.214;3.270;2023-05-10T01:03:56;384.10;2329.60
16491;DHT22;8356;51.214;3.270;2023-05-10T01:06:22;384.00;2329.60
16491;DHT22;8356;51.214;3.270;2023-05-10T01:08:48;384.00;2329.60
16491;DHT22;8356;51.214;3.270;2023-05-10T01:11:13;359.30;2329.60
16491;DHT22;8356;51.214;3.270;2023-05-10T01:13:41;359.30;2329.60
16491;DHT22;8356;51.214;3.270;2023-05-10T01:16:07;384.00;2329.60
16491;DHT22;8356;51.214;3.270;2023-05-10T01:18:36;384.00;2329.60
16491;DHT22;8356;51.214;3.270;2023-05-10T01:21:38;384.00;2329.60
16491;DHT22;8356;51.214;3.270;2023-05-10T01:34:59;359.30;2329.60
16491;DHT22;8356;51.214;3.270;2023-05-10T01:37:42;359.30;2329.60
16491;DHT22;8356;51.214;3.270;2023-05-10T01:43:31;359.30;2329.60
16491;DHT22;8356;51.214;3.270;2023-05-10T01:46:02;359.30;2329.60
16491;DHT22;8356;51.214;3.270;2023-05-10T01:48:36;359.30;2329.60
16491;DHT22;8356;51.214;3.270;2023-05-10T01:51:04;359.30;2329.60
16491;DHT22;8356;51.214;3.270;2023-05-10T01:53:31;359.30;2329.60
16491;DHT22;8356;51.214;3.270;2023-05-10T01:55:59;359.30;2329.60
16491;DHT22;8356;51.214;3.270;2023-05-10T01:58:30;359.30;2329.60
16491;DHT22;8356;51.214;3.270;2023-05-10T02:00:59;359.30;2329.60
16491;DHT22;8356;51.214;3.270;2023-05-10T02:03:27;359.30;2329.60
16491;DHT22;8356;51.214;3.270;2023-05-10T02:05:54;359.30;2329.60
16491;DHT22;8356;51.214;3.270;2023-05-10T02:08:22;359.30;2329.60
16491;DHT22;8356;51.214;3.270;2023-05-10T02:10:50;359.20;2329.60
16491;DHT22;8356;51.214;3.270;2023-05-10T02:13:18;359.20;2329.60
16491;DHT22;8356;51.214;3.270;2023-05-10T02:15:47;359.20;2329.60
16491;DHT22;8356;51.214;3.270;2023-05-10T02:18:13;359.10;2329.60
16491;DHT22;8356;51.214;3.270;2023-05-10T02:20:40;384.70;2329.60
16491;DHT22;8356;51.214;3.270;2023-05-10T02:23:08;359.10;2329.60
16491;DHT22;8356;51.214;3.270;2023-05-10T02:25:34;359.10;2329.60
16491;DHT22;8356;51.214;3.270;2023-05-10T02:28:03;359.30;2329.60
16491;DHT22;8356;51.214;3.270;2023-05-10T02:30:31;359.20;2329.60
16491;DHT22;8356;51.214;3.270;2023-05-10T02:32:57;359.20;2329.60
16491;DHT22;8356;51.214;3.270;2023-05-10T02:35:26;359.20;2329.60
16491;DHT22;8356;51.214;3.270;2023-05-10T02:37:52;359.20;2329.60
16491;DHT22;8356;51.214;3.270;2023-05-10T02:40:19;359.10;2329.60
16491;DHT22;8356;51.214;3.270;2023-05-10T02:42:47;359.10;2329.60
16491;DHT22;8356;51.214;3.270;2023-05-10T02:45:18;359.20;2329.60
16491;DHT22;8356;51.214;3.270;2023-05-10T02:47:44;359.10;2329.60
16491;DHT22;8356;51.214;3.270;2023-05-10T02:50:10;359.10;2329.60
16491;DHT22;8356;51.214;3.270;2023-05-10T02:52:42;359.10;2329.60
16491;DHT22;8356;51.214;3.270;2023-05-10T02:55:11;359.00;2329.60
16491;DHT22;8356;51.214;3.270;2023-05-10T02:57:41;359.10;2329.60
16491;DHT22;8356;51.214;3.270;2023-05-10T03:00:08;359.10;2329.60
16491;DHT22;8356;51.214;3.270;2023-05-10T03:02:34;359.10;2329.60
16491;DHT22;8356;51.214;3.270;2023-05-10T03:05:01;359.10;2329.60
16491;DHT22;8356;51.214;3.270;2023-05-10T03:07:28;359.00;2329.60
16491;DHT22;8356;51.214;3.270;2023-05-10T03:09:53;359.00;2329.60
16491;DHT22;8356;51.214;3.270;2023-05-10T03:15:32;359.00;2329.60
16491;DHT22;8356;51.214;3.270;2023-05-10T03:18:15;359.00;2329.60
16491;DHT22;8356;51.214;3.270;2023-05-10T03:20:49;359.10;2329.60
16491;DHT22;8356;51.214;3.270;2023-05-10T03:25:52;359.10;2329.60
16491;DHT22;8356;51.214;3.270;2023-05-10T03:28:18;359.10;2329.60
16491;DHT22;8356;51.214;3.270;2023-05-10T03:30:46;359.10;2329.60
16491;DHT22;8356;51.214;3.270;2023-05-10T03:33:12;359.10;2329.60
16491;DHT22;8356;51.214;3.270;2023-05-10T03:35:38;359.10;2329.60
16491;DHT22;8356;51.214;3.270;2023-05-10T03:38:04;359.10;2329.60
16491;DHT22;8356;51.214;3.270;2023-05-10T03:40:30;359.10;2329.60
16491;DHT22;8356;51.214;3.270;2023-05-10T03:42:57;359.10;2329.60
16491;DHT22;8356;51.214;3.270;2023-05-10T03:45:23;359.00;2329.60
16491;DHT22;8356;51.214;3.270;2023-05-10T03:47:49;359.00;2329.60
16491;DHT22;8356;51.214;3.270;2023-05-10T03:50:14;359.00;2329.60
16491;DHT22;8356;51.214;3.270;2023-05-10T03:52:40;359.00;2329.60
16491;DHT22;8356;51.214;3.270;2023-05-10T03:55:06;359.00;2329.60
16491;DHT22;8356;51.214;3.270;2023-05-10T03:57:33;359.00;2329.60
16491;DHT22;8356;51.214;3.270;2023-05-10T03:59:59;359.00;2329.60
16491;DHT22;8356;51.214;3.270;2023-05-10T04:02:25;359.00;2329.60
16491;DHT22;8356;51.214;3.270;2023-05-10T04:04:50;359.00;2329.60
16491;DHT22;8356;51.214;3.270;2023-05-10T04:07:16;359.00;2329.60
16491;DHT22;8356;51.214;3.270;2023-05-10T04:09:42;359.00;2329.60
16491;DHT22;8356;51.214;3.270;2023-05-10T04:12:08;359.10;2329.60
16491;DHT22;8356;51.214;3.270;2023-05-10T04:14:33;359.00;2329.60
16491;DHT22;8356;51.214;3.270;2023-05-10T04:16:59;359.10;2329.60
16491;DHT22;8356;51.214;3.270;2023-05-10T04:19:29;359.00;2329.60
16491;DHT22;8356;51.214;3.270;2023-05-10T04:21:55;359.00;2329.60
16491;DHT22;8356;51.214;3.270;2023-05-10T04:24:21;359.00;2329.60
16491;DHT22;8356;51.214;3.270;2023-05-10T04:26:46;359.00;2329.60
16491;DHT22;8356;51.214;3.270;2023-05-10T04:29:12;359.10;2329.60
16491;DHT22;8356;51.214;3.270;2023-05-10T04:31:38;359.10;2329.60
16491;DHT22;8356;51.214;3.270;2023-05-10T04:34:03;359.10;2329.60
16491;DHT22;8356;51.214;3.270;2023-05-10T04:36:29;359.10;2329.60
16491;DHT22;8356;51.214;3.270;2023-05-10T04:38:55;359.10;2329.60
16491;DHT22;8356;51.214;3.270;2023-05-10T04:41:20;359.10;2329.60
16491;DHT22;8356;51.214;3.270;2023-05-10T04:43:46;359.10;2329.60
16491;DHT22;8356;51.214;3.270;2023-05-10T04:46:14;359.20;2329.60
16491;DHT22;8356;51.214;3.270;2023-05-10T04:48:40;359.20;2329.60
16491;DHT22;8356;51.214;3.270;2023-05-10T04:51:05;359.20;2329.60
16491;DHT22;8356;51.214;3.270;2023-05-10T04:53:32;359.30;2329.60
16491;DHT22;8356;51.214;3.270;2023-05-10T04:55:57;359.30;2329.60
16491;DHT22;8356;51.214;3.270;2023-05-10T04:58:23;384.10;2329.60
16491;DHT22;8356;51.214;3.270;2023-05-10T05:00:49;384.10;2329.60
16491;DHT22;8356;51.214;3.270;2023-05-10T05:03:14;384.10;2329.60
16491;DHT22;8356;51.214;3.270;2023-05-10T05:05:40;384.10;2329.60
16491;DHT22;8356;51.214;3.270;2023-05-10T05:08:06;384.20;2329.60
16491;DHT22;8356;51.214;3.270;2023-05-10T05:10:32;384.20;2329.60
16491;DHT22;8356;51.214;3.270;2023-05-10T05:12:57;384.20;2329.60
16491;DHT22;8356;51.214;3.270;2023-05-10T05:15:23;384.20;2329.60
16491;DHT22;8356;51.214;3.270;2023-05-10T05:17:48;384.20;2329.60
16491;DHT22;8356;51.214;3.270;2023-05-10T05:20:14;384.30;2329.60
16491;DHT22;8356;51.214;3.270;2023-05-10T05:22:40;384.30;2329.60
16491;DHT22;8356;51.214;3.270;2023-05-10T05:25:06;384.40;2329.60
16491;DHT22;8356;51.214;3.270;2023-05-10T05:27:32;384.50;2329.60
16491;DHT22;8356;51.214;3.270;2023-05-10T05:29:58;384.50;2329.60
16491;DHT22;8356;51.214;3.270;2023-05-10T05:32:24;384.50;2329.60
16491;DHT22;8356;51.214;3.270;2023-05-10T05:34:50;384.60;2329.60
16491;DHT22;8356;51.214;3.270;2023-05-10T05:37:18;384.60;2329.60
16491;DHT22;8356;51.214;3.270;2023-05-10T05:39:44;384.60;2329.60
16491;DHT22;8356;51.214;3.270;2023-05-10T05:42:11;384.70;2329.60
16491;DHT22;8356;51.214;3.270;2023-05-10T05:44:37;384.70;2329.60
16491;DHT22;8356;51.214;3.270;2023-05-10T05:47:04;384.70;2329.60
16491;DHT22;8356;51.214;3.270;2023-05-10T05:49:30;384.70;2329.60
16491;DHT22;8356;51.214;3.270;2023-05-10T05:52:02;359.30;2329.60
16491;DHT22;8356;51.214;3.270;2023-05-10T05:54:29;384.70;2329.60
16491;DHT22;8356;51.214;3.270;2023-05-10T05:56:56;384.90;2329.60
16491;DHT22;8356;51.214;3.270;2023-05-10T05:59:22;384.90;2329.60
16491;DHT22;8356;51.214;3.270;2023-05-10T06:01:48;409.60;2355.20
16491;DHT22;8356;51.214;3.270;2023-05-10T06:04:14;384.80;2329.60
16491;DHT22;8356;51.214;3.270;2023-05-10T06:06:39;384.70;2329.60
16491;DHT22;8356;51.214;3.270;2023-05-10T06:09:05;384.80;2329.60
16491;DHT22;8356;51.214;3.270;2023-05-10T06:11:30;384.90;2329.60
16491;DHT22;8356;51.214;3.270;2023-05-10T06:13:58;409.60;2355.20
16491;DHT22;8356;51.214;3.270;2023-05-10T06:16:24;384.90;2329.60
16491;DHT22;8356;51.214;3.270;2023-05-10T06:18:50;384.90;2329.60
16491;DHT22;8356;51.214;3.270;2023-05-10T06:21:16;409.60;2355.20
16491;DHT22;8356;51.214;3.270;2023-05-10T06:23:42;409.70;2355.20
16491;DHT22;8356;51.214;3.270;2023-05-10T06:26:07;409.70;2355.20
16491;DHT22;8356;51.214;3.270;2023-05-10T06:28:33;409.60;2355.20
16491;DHT22;8356;51.214;3.270;2023-05-10T06:30:59;409.70;2355.20
16491;DHT22;8356;51.214;3.270;2023-05-10T06:33:25;409.80;2355.20
16491;DHT22;8356;51.214;3.270;2023-05-10T06:35:51;409.80;2355.20
16491;DHT22;8356;51.214;3.270;2023-05-10T06:38:17;409.70;2355.20
16491;DHT22;8356;51.214;3.270;2023-05-10T06:40:43;409.60;2355.20
16491;DHT22;8356;51.214;3.270;2023-05-10T06:43:09;409.60;2355.20
16491;DHT22;8356;51.214;3.270;2023-05-10T06:45:35;409.60;2355.20
16491;DHT22;8356;51.214;3.270;2023-05-10T06:48:00;409.60;2355.20
16491;DHT22;8356;51.214;3.270;2023-05-10T06:50:26;409.70;2355.20
16491;DHT22;8356;51.214;3.270;2023-05-10T06:52:52;409.60;2355.20
16491;DHT22;8356;51.214;3.270;2023-05-10T06:55:17;409.60;2355.20
16491;DHT22;8356;51.214;3.270;2023-05-10T06:57:43;384.90;2329.60
16491;DHT22;8356;51.214;3.270;2023-05-10T07:00:09;384.90;2329.60
16491;DHT22;8356;51.214;3.270;2023-05-10T07:02:35;409.60;2355.20
16491;DHT22;8356;51.214;3.270;2023-05-10T07:05:01;409.60;2355.20
16491;DHT22;8356;51.214;3.270;2023-05-10T07:07:27;409.70;2355.20
16491;DHT22;8356;51.214;3.270;2023-05-10T07:09:53;409.80;2355.20
16491;DHT22;8356;51.214;3.270;2023-05-10T07:12:19;409.80;2355.20
16491;DHT22;8356;51.214;3.270;2023-05-10T07:14:45;409.70;2355.20
16491;DHT22;8356;51.214;3.270;2023-05-10T07:17:11;409.70;2355.20
16491;DHT22;8356;51.214;3.270;2023-05-10T07:19:36;409.60;2355.20
16491;DHT22;8356;51.214;3.270;2023-05-10T07:22:02;409.60;2355.20
16491;DHT22;8356;51.214;3.270;2023-05-10T07:24:28;409.70;2355.20
16491;DHT22;8356;51.214;3.270;2023-05-10T07:26:53;409.80;2355.20
16491;DHT22;8356;51.214;3.270;2023-05-10T07:29:19;409.80;2355.20
16491;DHT22;8356;51.214;3.270;2023-05-10T07:31:44;409.90;2355.20
16491;DHT22;8356;51.214;3.270;2023-05-10T07:34:10;409.90;2355.20
16491;DHT22;8356;51.214;3.270;2023-05-10T07:36:36;409.90;2355.20
16491;DHT22;8356;51.214;3.270;2023-05-10T07:39:01;409.90;2355.20
16491;DHT22;8356;51.214;3.270;2023-05-10T07:41:27;409.90;2355.20
16491;DHT22;8356;51.214;3.270;2023-05-10T07:43:53;410.10;2355.20
16491;DHT22;8356;51.214;3.270;2023-05-10T07:46:18;410.20;2355.20
16491;DHT22;8356;51.214;3.270;2023-05-10T07:48:45;410.30;2355.20
16491;DHT22;8356;51.214;3.270;2023-05-10T07:51:11;410.40;2355.20
16491;DHT22;8356;51.214;3.270;2023-05-10T07:53:37;435.20;2355.20
16491;DHT22;8356;51.214;3.270;2023-05-10T07:56:26;435.30;2355.20
16491;DHT22;8356;51.214;3.270;2023-05-10T07:58:54;435.30;2355.20
16491;DHT22;8356;51.214;3.270;2023-05-10T08:01:19;435.30;2355.20
16491;DHT22;8356;51.214;3.270;2023-05-10T08:03:45;435.20;2355.20
16491;DHT22;8356;51.214;3.270;2023-05-10T08:06:11;435.30;2355.20
16491;DHT22;8356;51.214;3.270;2023-05-10T08:08:37;435.50;2355.20
16491;DHT22;8356;51.214;3.270;2023-05-10T08:11:03;435.90;2355.20
16491;DHT22;8356;51.214;3.270;2023-05-10T08:13:29;460.90;2380.80
16491;DHT22;8356;51.214;3.270;2023-05-10T08:15:55;461.10;2380.80
16491;DHT22;8356;51.214;3.270;2023-05-10T08:18:20;461.20;2380.80
16491;DHT22;8356;51.214;3.270;2023-05-10T08:20:46;461.50;2380.80
16491;DHT22;8356;51.214;3.270;2023-05-10T08:23:15;486.40;2380.80
16491;DHT22;8356;51.214;3.270;2023-05-10T08:25:41;461.70;2380.80
16491;DHT22;8356;51.214;3.270;2023-05-10T08:28:06;461.50;2380.80
16491;DHT22;8356;51.214;3.270;2023-05-10T08:30:32;461.20;2380.80
16491;DHT22;8356;51.214;3.270;2023-05-10T08:32:58;461.10;2380.80
16491;DHT22;8356;51.214;3.270;2023-05-10T08:35:23;460.90;2380.80
16491;DHT22;8356;51.214;3.270;2023-05-10T08:37:50;460.80;2380.80
16491;DHT22;8356;51.214;3.270;2023-05-10T08:40:16;460.80;2380.80
16491;DHT22;8356;51.214;3.270;2023-05-10T08:42:51;460.80;2380.80
16491;DHT22;8356;51.214;3.270;2023-05-10T08:45:21;436.10;2355.20
16491;DHT22;8356;51.214;3.270;2023-05-10T08:47:48;435.80;2355.20
16491;DHT22;8356;51.214;3.270;2023-05-10T08:50:15;435.80;2355.20
16491;DHT22;8356;51.214;3.270;2023-05-10T08:52:41;435.70;2355.20
16491;DHT22;8356;51.214;3.270;2023-05-10T08:55:08;435.70;2355.20
16491;DHT22;8356;51.214;3.270;2023-05-10T08:57:34;435.50;2355.20
16491;DHT22;8356;51.214;3.270;2023-05-10T09:00:01;435.50;2355.20
16491;DHT22;8356;51.214;3.270;2023-05-10T09:02:27;435.60;2355.20
16491;DHT22;8356;51.214;3.270;2023-05-10T09:04:53;435.70;2355.20
16491;DHT22;8356;51.214;3.270;2023-05-10T09:07:20;435.80;2355.20
16491;DHT22;8356;51.214;3.270;2023-05-10T09:09:46;435.90;2355.20
16491;DHT22;8356;51.214;3.270;2023-05-10T09:12:13;436.10;2355.20
16491;DHT22;8356;51.214;3.270;2023-05-10T09:14:41;436.10;2355.20
16491;DHT22;8356;51.214;3.270;2023-05-10T09:17:07;436.00;2355.20
16491;DHT22;8356;51.214;3.270;2023-05-10T09:19:33;435.90;2355.20
16491;DHT22;8356;51.214;3.270;2023-05-10T09:21:59;436.00;2355.20
16491;DHT22;8356;51.214;3.270;2023-05-10T09:24:27;436.00;2355.20
16491;DHT22;8356;51.214;3.270;2023-05-10T09:26:52;436.10;2355.20
16491;DHT22;8356;51.214;3.270;2023-05-10T09:29:18;436.10;2355.20
16491;DHT22;8356;51.214;3.270;2023-05-10T09:31:49;460.90;2380.80
16491;DHT22;8356;51.214;3.270;2023-05-10T09:34:38;461.10;2380.80
16491;DHT22;8356;51.214;3.270;2023-05-10T09:37:06;461.40;2380.80
16491;DHT22;8356;51.214;3.270;2023-05-10T09:39:35;461.50;2380.80
16491;DHT22;8356;51.214;3.270;2023-05-10T09:42:08;461.50;2380.80
16491;DHT22;8356;51.214;3.270;2023-05-10T09:44:35;461.40;2380.80
16491;DHT22;8356;51.214;3.270;2023-05-10T09:47:01;461.30;2380.80
16491;DHT22;8356;51.214;3.270;2023-05-10T09:49:28;461.30;2380.80
16491;DHT22;8356;51.214;3.270;2023-05-10T09:52:04;435.50;2355.20
16491;DHT22;8356;51.214;3.270;2023-05-10T09:54:30;461.30;2380.80
16491;DHT22;8356;51.214;3.270;2023-05-10T09:56:56;461.30;2380.80
16491;DHT22;8356;51.214;3.270;2023-05-10T09:59:25;461.20;2380.80
16491;DHT22;8356;51.214;3.270;2023-05-10T10:01:52;461.10;2380.80
16491;DHT22;8356;51.214;3.270;2023-05-10T10:04:17;461.00;2380.80
16491;DHT22;8356;51.214;3.270;2023-05-10T10:06:45;460.80;2380.80
16491;DHT22;8356;51.214;3.270;2023-05-10T10:09:10;436.00;2355.20
16491;DHT22;8356;51.214;3.270;2023-05-10T10:11:37;435.80;2355.20
16491;DHT22;8356;51.214;3.270;2023-05-10T10:14:04;435.80;2355.20
16491;DHT22;8356;51.214;3.270;2023-05-10T10:16:30;435.90;2355.20
16491;DHT22;8356;51.214;3.270;2023-05-10T10:18:56;435.70;2355.20
16491;DHT22;8356;51.214;3.270;2023-05-10T10:21:22;435.60;2355.20
16491;DHT22;8356;51.214;3.270;2023-05-10T10:23:48;410.30;2355.20
16491;DHT22;8356;51.214;3.270;2023-05-10T10:26:16;435.60;2355.20
16491;DHT22;8356;51.214;3.270;2023-05-10T10:31:52;435.70;2355.20
16491;DHT22;8356;51.214;3.270;2023-05-10T10:34:30;435.90;2355.20
16491;DHT22;8356;51.214;3.270;2023-05-10T10:36:57;435.90;2355.20
16491;DHT22;8356;51.214;3.270;2023-05-10T10:39:28;435.90;2355.20
16491;DHT22;8356;51.214;3.270;2023-05-10T10:41:55;435.90;2355.20
16491;DHT22;8356;51.214;3.270;2023-05-10T10:47:06;436.10;2355.20
16491;DHT22;8356;51.214;3.270;2023-05-10T10:52:26;435.70;2355.20
16491;DHT22;8356;51.214;3.270;2023-05-10T10:57:30;460.90;2380.80
16491;DHT22;8356;51.214;3.270;2023-05-10T11:00:26;461.10;2380.80
16491;DHT22;8356;51.214;3.270;2023-05-10T11:03:12;461.50;2380.80
16491;DHT22;8356;51.214;3.270;2023-05-10T11:05:48;486.50;2380.80
16491;DHT22;8356;51.214;3.270;2023-05-10T11:08:28;486.70;2380.80
16491;DHT22;8356;51.214;3.270;2023-05-10T11:11:03;486.60;2380.80
16491;DHT22;8356;51.214;3.270;2023-05-10T11:16:19;486.80;2380.80
16491;DHT22;8356;51.214;3.270;2023-05-10T11:19:03;486.60;2380.80
16491;DHT22;8356;51.214;3.270;2023-05-10T11:21:30;461.70;2380.80
16491;DHT22;8356;51.214;3.270;2023-05-10T11:23:58;461.60;2380.80
16491;DHT22;8356;51.214;3.270;2023-05-10T11:26:27;461.60;2380.80
16491;DHT22;8356;51.214;3.270;2023-05-10T11:28:55;461.60;2380.80
16491;DHT22;8356;51.214;3.270;2023-05-10T11:31:22;486.40;2380.80
16491;DHT22;8356;51.214;3.270;2023-05-10T11:33:51;486.60;2380.80
16491;DHT22;8356;51.214;3.270;2023-05-10T11:36:18;486.60;2380.80
16491;DHT22;8356;51.214;3.270;2023-05-10T11:38:45;486.60;2380.80
16491;DHT22;8356;51.214;3.270;2023-05-10T11:41:12;461.70;2380.80
16491;DHT22;8356;51.214;3.270;2023-05-10T11:43:41;486.80;2380.80
16491;DHT22;8356;51.214;3.270;2023-05-10T11:46:09;461.40;2380.80
16491;DHT22;8356;51.214;3.270;2023-05-10T11:48:39;461.20;2380.80
16491;DHT22;8356;51.214;3.270;2023-05-10T11:51:07;461.20;2380.80
16491;DHT22;8356;51.214;3.270;2023-05-10T11:53:33;461.40;2380.80
16491;DHT22;8356;51.214;3.270;2023-05-10T11:56:09;461.50;2380.80
16491;DHT22;8356;51.214;3.270;2023-05-10T11:58:36;461.40;2380.80
16491;DHT22;8356;51.214;3.270;2023-05-10T12:01:04;461.30;2380.80
16491;DHT22;8356;51.214;3.270;2023-05-10T12:03:30;461.10;2380.80
16491;DHT22;8356;51.214;3.270;2023-05-10T12:05:56;460.80;2380.80
16491;DHT22;8356;51.214;3.270;2023-05-10T12:08:26;460.90;2380.80
16491;DHT22;8356;51.214;3.270;2023-05-10T12:10:54;460.80;2380.80
16491;DHT22;8356;51.214;3.270;2023-05-10T12:13:29;461.10;2380.80
16491;DHT22;8356;51.214;3.270;2023-05-10T12:15:57;460.80;2380.80
16491;DHT22;8356;51.214;3.270;2023-05-10T12:18:23;460.80;2380.80
16491;DHT22;8356;51.214;3.270;2023-05-10T12:20:52;460.90;2380.80
16491;DHT22;8356;51.214;3.270;2023-05-10T12:23:20;461.40;2380.80
16491;DHT22;8356;51.214;3.270;2023-05-10T12:25:46;461.20;2380.80
16491;DHT22;8356;51.214;3.270;2023-05-10T12:28:12;461.40;2380.80
16491;DHT22;8356;51.214;3.270;2023-05-10T12:30:37;461.40;2380.80
16491;DHT22;8356;51.214;3.270;2023-05-10T12:33:12;461.40;2380.80
16491;DHT22;8356;51.214;3.270;2023-05-10T12:35:49;461.40;2380.80
16491;DHT22;8356;51.214;3.270;2023-05-10T12:40:50;461.40;2380.80
16491;DHT22;8356;51.214;3.270;2023-05-10T12:43:16;461.10;2380.80
16491;DHT22;8356;51.214;3.270;2023-05-10T12:45:41;461.30;2380.80
16491;DHT22;8356;51.214;3.270;2023-05-10T12:48:07;461.50;2380.80
16491;DHT22;8356;51.214;3.270;2023-05-10T12:50:33;486.50;2380.80
16491;DHT22;8356;51.214;3.270;2023-05-10T12:52:58;487.00;2380.80
16491;DHT22;8356;51.214;3.270;2023-05-10T12:55:24;487.20;2380.80
16491;DHT22;8356;51.214;3.270;2023-05-10T12:57:50;487.20;2380.80
16491;DHT22;8356;51.214;3.270;2023-05-10T13:00:16;487.10;2380.80
16491;DHT22;8356;51.214;3.270;2023-05-10T13:02:42;487.30;2380.80
16491;DHT22;8356;51.214;3.270;2023-05-10T13:05:07;486.60;2380.80
16491;DHT22;8356;51.214;3.270;2023-05-10T13:07:33;486.70;2380.80
16491;DHT22;8356;51.214;3.270;2023-05-10T13:09:59;487.00;2380.80
16491;DHT22;8356;51.214;3.270;2023-05-10T13:12:24;487.20;2380.80
16491;DHT22;8356;51.214;3.270;2023-05-10T13:14:50;487.20;2380.80
16491;DHT22;8356;51.214;3.270;2023-05-10T13:17:15;487.30;2380.80
16491;DHT22;8356;51.214;3.270;2023-05-10T13:19:41;512.00;2380.80
16491;DHT22;8356;51.214;3.270;2023-05-10T13:22:07;487.20;2380.80
16491;DHT22;8356;51.214;3.270;2023-05-10T13:24:32;486.70;2380.80
16491;DHT22;8356;51.214;3.270;2023-05-10T13:26:58;486.70;2380.80
16491;DHT22;8356;51.214;3.270;2023-05-10T13:29:24;486.90;2380.80
16491;DHT22;8356;51.214;3.270;2023-05-10T13:31:49;487.00;2380.80
16491;DHT22;8356;51.214;3.270;2023-05-10T13:34:15;486.80;2380.80
16491;DHT22;8356;51.214;3.270;2023-05-10T13:36:41;486.80;2380.80
16491;DHT22;8356;51.214;3.270;2023-05-10T13:39:07;486.80;2380.80
16491;DHT22;8356;51.214;3.270;2023-05-10T13:41:33;486.70;2380.80
16491;DHT22;8356;51.214;3.270;2023-05-10T13:43:59;486.60;2380.80
16491;DHT22;8356;51.214;3.270;2023-05-10T13:46:25;486.80;2380.80
16491;DHT22;8356;51.214;3.270;2023-05-10T13:48:50;486.90;2380.80
16491;DHT22;8356;51.214;3.270;2023-05-10T13:51:16;487.00;2380.80
16491;DHT22;8356;51.214;3.270;2023-05-10T13:53:42;486.80;2380.80
16491;DHT22;8356;51.214;3.270;2023-05-10T13:56:07;486.50;2380.80
16491;DHT22;8356;51.214;3.270;2023-05-10T13:58:33;486.50;2380.80
16491;DHT22;8356;51.214;3.270;2023-05-10T14:00:58;486.70;2380.80
16491;DHT22;8356;51.214;3.270;2023-05-10T14:03:24;487.00;2380.80
16491;DHT22;8356;51.214;3.270;2023-05-10T14:05:50;487.20;2380.80
16491;DHT22;8356;51.214;3.270;2023-05-10T14:08:15;512.00;2380.80
16491;DHT22;8356;51.214;3.270;2023-05-10T14:10:41;512.00;2380.80
16491;DHT22;8356;51.214;3.270;2023-05-10T14:13:07;487.10;2380.80
16491;DHT22;8356;51.214;3.270;2023-05-10T14:15:33;486.90;2380.80
16491;DHT22;8356;51.214;3.270;2023-05-10T14:17:58;486.90;2380.80
16491;DHT22;8356;51.214;3.270;2023-05-10T14:20:24;487.10;2380.80
16491;DHT22;8356;51.214;3.270;2023-05-10T14:22:50;487.10;2380.80
16491;DHT22;8356;51.214;3.270;2023-05-10T14:25:16;487.00;2380.80
16491;DHT22;8356;51.214;3.270;2023-05-10T14:27:41;487.00;2380.80
16491;DHT22;8356;51.214;3.270;2023-05-10T14:30:07;487.00;2380.80
16491;DHT22;8356;51.214;3.270;2023-05-10T14:32:33;486.90;2380.80
16491;DHT22;8356;51.214;3.270;2023-05-10T14:34:59;486.60;2380.80
16491;DHT22;8356;51.214;3.270;2023-05-10T14:37:25;486.40;2380.80
16491;DHT22;8356;51.214;3.270;2023-05-10T14:39:51;486.70;2380.80
16491;DHT22;8356;51.214;3.270;2023-05-10T14:42:17;486.80;2380.80
16491;DHT22;8356;51.214;3.270;2023-05-10T14:44:43;487.00;2380.80
16491;DHT22;8356;51.214;3.270;2023-05-10T14:47:08;486.90;2380.80
16491;DHT22;8356;51.214;3.270;2023-05-10T14:49:34;486.80;2380.80
16491;DHT22;8356;51.214;3.270;2023-05-10T14:52:00;486.80;2380.80
16491;DHT22;8356;51.214;3.270;2023-05-10T14:54:25;486.70;2380.80
16491;DHT22;8356;51.214;3.270;2023-05-10T14:56:51;486.70;2380.80
16491;DHT22;8356;51.214;3.270;2023-05-10T14:59:17;486.70;2380.80
16491;DHT22;8356;51.214;3.270;2023-05-10T15:01:42;486.60;2380.80
16491;DHT22;8356;51.214;3.270;2023-05-10T15:04:08;486.60;2380.80
16491;DHT22;8356;51.214;3.270;2023-05-10T15:06:35;486.80;2380.80
16491;DHT22;8356;51.214;3.270;2023-05-10T15:09:01;486.70;2380.80
16491;DHT22;8356;51.214;3.270;2023-05-10T15:11:27;486.70;2380.80
16491;DHT22;8356;51.214;3.270;2023-05-10T15:13:54;486.80;2380.80
16491;DHT22;8356;51.214;3.270;2023-05-10T15:16:20;486.60;2380.80
16491;DHT22;8356;51.214;3.270;2023-05-10T15:18:45;486.60;2380.80
16491;DHT22;8356;51.214;3.270;2023-05-10T15:21:11;486.50;2380.80
16491;DHT22;8356;51.214;3.270;2023-05-10T15:23:37;461.70;2380.80
16491;DHT22;8356;51.214;3.270;2023-05-10T15:26:03;461.60;2380.80
16491;DHT22;8356;51.214;3.270;2023-05-10T15:28:28;461.50;2380.80
16491;DHT22;8356;51.214;3.270;2023-05-10T15:30:55;486.40;2380.80
16491;DHT22;8356;51.214;3.270;2023-05-10T15:33:21;486.40;2380.80
16491;DHT22;8356;51.214;3.270;2023-05-10T15:35:47;486.40;2380.80
16491;DHT22;8356;51.214;3.270;2023-05-10T15:38:12;486.60;2380.80
16491;DHT22;8356;51.214;3.270;2023-05-10T15:40:38;486.60;2380.80
16491;DHT22;8356;51.214;3.270;2023-05-10T15:43:04;486.80;2380.80
16491;DHT22;8356;51.214;3.270;2023-05-10T15:45:30;486.70;2380.80
16491;DHT22;8356;51.214;3.270;2023-05-10T15:47:57;486.70;2380.80
16491;DHT22;8356;51.214;3.270;2023-05-10T15:50:24;512.00;2380.80
16491;DHT22;8356;51.214;3.270;2023-05-10T15:52:50;486.60;2380.80
16491;DHT22;8356;51.214;3.270;2023-05-10T15:55:16;486.70;2380.80
16491;DHT22;8356;51.214;3.270;2023-05-10T15:57:43;486.80;2380.80
16491;DHT22;8356;51.214;3.270;2023-05-10T16:00:10;487.00;2380.80
16491;DHT22;8356;51.214;3.270;2023-05-10T16:02:36;487.00;2380.80
16491;DHT22;8356;51.214;3.270;2023-05-10T16:05:02;486.80;2380.80
16491;DHT22;8356;51.214;3.270;2023-05-10T16:07:28;486.60;2380.80
16491;DHT22;8356;51.214;3.270;2023-05-10T16:09:53;486.60;2380.80
16491;DHT22;8356;51.214;3.270;2023-05-10T16:12:19;486.80;2380.80
16491;DHT22;8356;51.214;3.270;2023-05-10T16:14:45;486.80;2380.80
16491;DHT22;8356;51.214;3.270;2023-05-10T16:17:11;486.70;2380.80